Time;durP1;ratioP1;P1;durP2;ratioP2;P2;SDS_P1;SDS_P2;PMS_P1;PMS_P2;Temp;Humidity;BMP_temperature;BMP_pressure;BME280_temperature;BME280_humidity;BME280_pressure;Samples;Min_cycle;Max_cycle;Signal;HPM_P1;HPM_P2
2023/05/01 00:00:56;;;;;;;7.25;3.13;;;13.20;90.40;;;;;;6135146;23;20016;-91
2023/05/01 00:03:22;;;;;;;4.53;2.85;;;13.20;90.40;;;;;;6184177;23;20347;-93
2023/05/01 00:05:48;;;;;;;4.55;3.38;;;13.20;90.40;;;;;;6184192;23;20005;-91
2023/05/01 00:08:14;;;;;;;6.00;3.33;;;13.20;90.40;;;;;;6184224;23;20009;-92
2023/05/01 00:10:40;;;;;;;4.68;2.97;;;13.20;90.40;;;;;;6183780;23;20009;-93
2023/05/01 00:13:06;;;;;;;3.15;2.85;;;13.20;90.40;;;;;;6184164;23;20112;-92
2023/05/01 00:15:32;;;;;;;4.75;3.33;;;13.20;90.40;;;;;;6134538;23;20032;-92
2023/05/01 00:17:58;;;;;;;5.90;3.20;;;13.20;90.40;;;;;;6159247;23;20007;-92
2023/05/01 00:20:30;;;;;;;4.03;3.03;;;13.20;90.50;;;;;;6183958;23;20092;-93
2023/05/01 00:22:56;;;;;;;8.60;3.80;;;13.20;90.40;;;;;;6183747;23;20043;-92
2023/05/01 00:25:22;;;;;;;4.15;3.28;;;13.20;90.40;;;;;;6184031;23;19997;-92
2023/05/01 00:27:48;;;;;;;6.70;3.15;;;13.30;90.50;;;;;;6184086;23;20404;-93
2023/05/01 00:30:14;;;;;;;4.25;2.95;;;13.20;90.50;;;;;;6184121;23;20005;-92
2023/05/01 00:32:40;;;;;;;5.20;3.33;;;13.20;90.50;;;;;;6183439;23;20001;-91
2023/05/01 00:35:06;;;;;;;3.45;2.80;;;13.20;90.50;;;;;;6184073;23;20009;-93
2023/05/01 00:37:32;;;;;;;4.60;2.92;;;13.20;90.50;;;;;;6134636;23;20013;-92
2023/05/01 00:39:58;;;;;;;5.97;3.28;;;13.20;90.50;;;;;;6184235;23;20005;-94
2023/05/01 00:42:23;;;;;;;5.07;3.63;;;13.20;90.50;;;;;;6158813;23;20612;-92
2023/05/01 00:44:49;;;;;;;5.65;2.83;;;13.10;90.50;;;;;;6183815;23;20008;-92
2023/05/01 00:47:15;;;;;;;5.22;3.00;;;13.10;90.50;;;;;;6183665;23;20005;-92
2023/05/01 00:49:42;;;;;;;5.32;3.17;;;13.20;90.50;;;;;;6183336;23;20035;-91
2023/05/01 00:52:11;;;;;;;6.07;3.45;;;13.10;90.50;;;;;;6134283;23;20017;-92
2023/05/01 00:54:37;;;;;;;7.10;3.40;;;13.10;90.50;;;;;;6183254;23;20452;-92
2023/05/01 00:57:05;;;;;;;4.32;3.25;;;13.10;90.50;;;;;;6183235;23;20005;-92
2023/05/01 00:59:31;;;;;;;8.00;3.72;;;13.10;90.50;;;;;;6158243;23;20103;-92
2023/05/01 01:01:57;;;;;;;3.85;2.90;;;13.50;90.70;;;;;;6158530;23;20083;-91
2023/05/01 01:04:23;;;;;;;4.43;2.78;;;13.10;90.60;;;;;;6183083;23;20004;-92
2023/05/01 01:07:02;;;;;;;4.88;3.20;;;13.10;90.60;;;;;;6185572;23;20072;-92
2023/05/01 01:09:47;;;;;;;4.95;3.08;;;13.10;90.60;;;;;;6158817;23;20008;-92
2023/05/01 01:12:28;;;;;;;3.42;2.67;;;13.10;90.60;;;;;;6159060;23;20647;-92
2023/05/01 01:15:27;;;;;;;3.72;2.95;;;13.10;90.60;;;;;;6158938;23;20044;-92
2023/05/01 01:18:16;;;;;;;9.20;2.90;;;13.10;90.60;;;;;;6157770;23;20075;-92
2023/05/01 01:20:51;;;;;;;4.35;2.90;;;13.10;90.60;;;;;;6158660;23;20012;-91
2023/05/01 01:23:35;;;;;;;4.88;2.95;;;13.10;90.60;;;;;;6159207;23;20407;-92
2023/05/01 01:26:10;;;;;;;6.55;3.47;;;13.10;90.60;;;;;;6159076;23;20088;-92
2023/05/01 01:28:58;;;;;;;8.30;3.22;;;13.10;90.60;;;;;;6158360;23;20011;-93
2023/05/01 01:31:51;;;;;;;5.95;3.13;;;13.10;90.70;;;;;;6157998;23;20092;-92
2023/05/01 01:34:26;;;;;;;5.85;3.10;;;13.10;90.70;;;;;;6158494;23;20294;-92
2023/05/01 01:37:29;;;;;;;7.68;3.40;;;13.10;90.70;;;;;;6158463;23;20017;-93
2023/05/01 01:40:10;;;;;;;5.07;3.38;;;13.10;90.70;;;;;;6158541;23;20004;-92
2023/05/01 01:42:53;;;;;;;4.13;2.63;;;13.10;90.70;;;;;;6158740;23;20330;-92
2023/05/01 01:45:22;;;;;;;8.98;3.35;;;13.10;90.70;;;;;;6183406;23;20090;-93
2023/05/01 01:47:50;;;;;;;5.82;3.55;;;13.10;90.70;;;;;;6158312;23;20005;-92
2023/05/01 01:50:17;;;;;;;5.68;3.40;;;13.10;90.70;;;;;;6158282;23;20032;-92
2023/05/01 01:52:46;;;;;;;6.78;3.20;;;13.00;90.70;;;;;;6158596;23;20117;-92
2023/05/01 01:55:13;;;;;;;4.95;3.28;;;13.10;90.70;;;;;;6159155;23;20008;-96
2023/05/01 01:57:46;;;;;;;6.78;3.17;;;13.10;90.70;;;;;;6159006;23;20005;-92
2023/05/01 02:00:12;;;;;;;3.88;2.92;;;13.10;90.70;;;;;;6158637;23;20012;-92
2023/05/01 02:02:39;;;;;;;8.52;3.00;;;13.10;90.70;;;;;;6158789;23;19997;-92
2023/05/01 02:05:07;;;;;;;5.20;3.25;;;13.60;90.90;;;;;;6156139;23;20427;-92
2023/05/01 02:07:39;;;;;;;4.63;3.72;;;13.10;90.70;;;;;;6158077;23;20600;-92
2023/05/01 02:10:07;;;;;;;4.88;3.17;;;13.10;90.80;;;;;;6157954;23;20391;-92
2023/05/01 02:12:34;;;;;;;4.15;3.50;;;13.00;90.70;;;;;;6158131;23;20001;-92
2023/05/01 02:15:01;;;;;;;3.83;2.65;;;13.00;90.70;;;;;;6158457;23;20033;-93
2023/05/01 02:17:28;;;;;;;7.45;3.00;;;13.00;90.70;;;;;;6158174;23;20015;-93
2023/05/01 02:20:04;;;;;;;5.53;3.35;;;13.10;90.80;;;;;;6133534;23;20008;-93
2023/05/01 02:22:33;;;;;;;5.22;3.10;;;13.00;90.70;;;;;;6157984;23;20007;-91
2023/05/01 02:25:00;;;;;;;5.05;3.42;;;13.10;90.70;;;;;;6182978;23;20001;-92
2023/05/01 02:27:31;;;;;;;7.35;3.50;;;13.10;90.70;;;;;;6158389;23;20008;-91
2023/05/01 02:29:57;;;;;;;5.72;3.65;;;13.10;90.70;;;;;;6159349;23;20050;-91
2023/05/01 02:32:22;;;;;;;7.78;3.35;;;13.10;90.70;;;;;;6183901;23;20036;-92
2023/05/01 02:34:48;;;;;;;4.57;3.17;;;13.00;90.70;;;;;;6184205;23;20013;-94
2023/05/01 02:37:14;;;;;;;4.55;3.00;;;13.00;90.70;;;;;;6184835;23;20019;-92
2023/05/01 02:39:42;;;;;;;7.25;3.45;;;13.00;90.70;;;;;;6159692;23;20308;-92
2023/05/01 02:42:10;;;;;;;4.72;3.17;;;13.00;90.70;;;;;;6157476;23;20005;-92
2023/05/01 02:44:44;;;;;;;4.78;3.20;;;13.00;90.70;;;;;;6158134;23;20058;-91
2023/05/01 02:47:16;;;;;;;6.45;3.38;;;13.00;91.10;;;;;;6158509;23;20088;-92
2023/05/01 02:49:43;;;;;;;6.03;3.80;;;13.00;90.70;;;;;;6157886;23;20096;-92
2023/05/01 02:52:11;;;;;;;10.68;3.38;;;13.10;90.70;;;;;;6157816;23;20005;-92
2023/05/01 02:54:37;;;;;;;9.38;3.33;;;13.10;90.70;;;;;;6158393;23;20012;-92
2023/05/01 02:57:06;;;;;;;6.03;3.13;;;13.00;90.70;;;;;;6158479;23;20091;-91
2023/05/01 02:59:32;;;;;;;7.50;3.50;;;13.00;90.70;;;;;;6157441;23;20327;-91
2023/05/01 03:01:58;;;;;;;6.93;3.42;;;13.00;90.70;;;;;;6183280;23;20008;-92
2023/05/01 03:04:24;;;;;;;5.35;3.38;;;13.00;90.70;;;;;;6183082;23;20009;-92
2023/05/01 03:06:50;;;;;;;7.78;3.30;;;13.00;90.70;;;;;;6183652;23;20036;-92
2023/05/01 03:09:16;;;;;;;10.10;3.60;;;13.00;90.70;;;;;;6183136;23;20060;-91
2023/05/01 03:11:42;;;;;;;6.13;3.28;;;13.00;90.70;;;;;;6182896;23;20009;-92
2023/05/01 03:14:07;;;;;;;7.47;3.53;;;13.40;90.90;;;;;;6184106;23;20009;-91
2023/05/01 03:16:33;;;;;;;5.82;3.00;;;13.00;90.80;;;;;;6184568;23;20144;-92
2023/05/01 03:18:59;;;;;;;5.43;3.35;;;13.00;90.80;;;;;;6159152;23;20013;-92
2023/05/01 03:21:25;;;;;;;5.50;3.30;;;13.00;90.80;;;;;;6184215;23;20005;-91
2023/05/01 03:23:51;;;;;;;7.38;3.30;;;13.00;90.80;;;;;;6185210;23;20031;-92
2023/05/01 03:26:16;;;;;;;5.90;3.30;;;13.00;90.80;;;;;;6135459;23;20594;-91
2023/05/01 03:28:42;;;;;;;6.82;3.20;;;13.00;90.80;;;;;;6183421;23;20382;-93
2023/05/01 03:31:08;;;;;;;5.95;3.60;;;13.00;90.80;;;;;;6183255;23;20005;-92
2023/05/01 03:33:34;;;;;;;7.93;3.53;;;13.00;90.80;;;;;;6184196;23;20331;-93
2023/05/01 03:36:02;;;;;;;8.75;3.25;;;13.00;90.80;;;;;;6185226;23;20423;-92
2023/05/01 03:38:29;;;;;;;5.35;3.63;;;13.00;90.80;;;;;;6159769;23;20055;-91
2023/05/01 03:40:55;;;;;;;10.50;4.03;;;12.90;90.70;;;;;;6159578;23;20330;-92
2023/05/01 03:43:22;;;;;;;5.03;3.20;;;13.00;90.80;;;;;;6135181;23;20092;-92
2023/05/01 03:45:49;;;;;;;4.78;3.22;;;13.00;90.80;;;;;;6159746;23;20028;-91
2023/05/01 03:48:14;;;;;;;4.93;3.08;;;13.00;90.80;;;;;;6159801;23;20061;-92
2023/05/01 03:50:40;;;;;;;5.95;3.17;;;13.00;90.80;;;;;;6183038;23;20005;-91
2023/05/01 03:53:06;;;;;;;4.53;3.13;;;13.00;90.80;;;;;;6184447;23;20004;-92
2023/05/01 03:55:32;;;;;;;6.13;3.65;;;13.00;90.80;;;;;;6184447;23;20009;-92
2023/05/01 03:57:58;;;;;;;8.05;3.88;;;14.10;91.10;;;;;;6184280;23;20064;-92
2023/05/01 04:00:24;;;;;;;4.38;3.30;;;13.00;90.80;;;;;;6159379;23;20005;-92
2023/05/01 04:02:50;;;;;;;5.30;3.63;;;12.90;90.80;;;;;;6159161;23;20009;-93
2023/05/01 04:05:16;;;;;;;5.82;3.30;;;12.90;91.10;;;;;;6111353;23;20012;-93
2023/05/01 04:07:42;;;;;;;6.40;3.28;;;12.90;90.80;;;;;;6184082;23;20037;-92
2023/05/01 04:10:08;;;;;;;6.38;3.45;;;12.90;90.80;;;;;;6184110;23;20056;-92
2023/05/01 04:12:34;;;;;;;4.75;3.70;;;13.00;90.80;;;;;;6183656;23;20015;-92
2023/05/01 04:15:00;;;;;;;4.78;3.28;;;12.90;90.80;;;;;;6184862;23;20088;-92
2023/05/01 04:17:27;;;;;;;5.53;3.70;;;12.90;90.80;;;;;;6183823;23;20397;-92
2023/05/01 04:19:54;;;;;;;7.63;3.42;;;12.90;90.80;;;;;;6184246;23;20009;-91
2023/05/01 04:22:20;;;;;;;7.45;3.35;;;12.90;90.80;;;;;;6183707;23;20007;-92
2023/05/01 04:24:46;;;;;;;5.32;3.03;;;12.90;90.80;;;;;;6158454;23;20012;-92
2023/05/01 04:27:12;;;;;;;6.90;3.45;;;12.90;90.90;;;;;;6184641;23;20009;-92
2023/05/01 04:29:38;;;;;;;5.13;3.20;;;12.90;90.90;;;;;;6183216;23;20021;-92
2023/05/01 04:32:04;;;;;;;8.35;3.88;;;12.90;90.90;;;;;;6183451;23;20013;-92
2023/05/01 04:34:29;;;;;;;4.93;3.22;;;12.90;90.90;;;;;;6134549;23;20089;-91
2023/05/01 04:36:58;;;;;;;4.80;2.97;;;12.90;90.90;;;;;;6183942;23;20009;-93
2023/05/01 04:39:24;;;;;;;6.03;3.55;;;12.90;90.90;;;;;;6135157;23;20012;-92
2023/05/01 04:41:50;;;;;;;5.68;3.10;;;12.90;90.90;;;;;;6183464;23;20031;-91
2023/05/01 04:44:15;;;;;;;3.85;2.97;;;12.90;90.90;;;;;;6183917;23;20008;-91
2023/05/01 04:46:41;;;;;;;4.75;3.42;;;12.90;90.90;;;;;;6135072;23;20009;-92
2023/05/01 04:49:08;;;;;;;9.15;3.85;;;12.90;90.90;;;;;;6184001;23;20021;-92
2023/05/01 04:51:34;;;;;;;5.65;3.67;;;12.90;90.90;;;;;;6183385;23;20032;-92
2023/05/01 04:54:00;;;;;;;5.60;3.15;;;12.90;90.90;;;;;;6159504;23;20013;-91
2023/05/01 04:56:26;;;;;;;4.63;3.55;;;12.90;90.90;;;;;;6184879;23;20362;-91
2023/05/01 04:58:54;;;;;;;6.43;3.47;;;12.90;90.90;;;;;;6183346;23;20040;-92
2023/05/01 05:01:20;;;;;;;10.20;4.00;;;12.90;90.90;;;;;;6183265;23;20013;-91
2023/05/01 05:03:46;;;;;;;5.13;3.80;;;12.90;90.90;;;;;;6183319;23;20008;-92
2023/05/01 05:06:11;;;;;;;4.32;3.30;;;12.90;90.90;;;;;;6183991;23;20482;-91
2023/05/01 05:08:37;;;;;;;7.90;3.70;;;12.90;91.30;;;;;;6182702;23;20013;-91
2023/05/01 05:11:03;;;;;;;4.05;3.22;;;12.90;91.00;;;;;;6183059;23;20080;-92
2023/05/01 05:13:29;;;;;;;5.38;3.45;;;12.90;91.00;;;;;;6183125;23;20108;-91
2023/05/01 05:15:54;;;;;;;4.80;3.60;;;12.90;91.00;;;;;;6183545;23;20012;-91
2023/05/01 05:18:20;;;;;;;6.97;4.00;;;12.90;91.00;;;;;;6183828;23;20312;-91
2023/05/01 05:20:46;;;;;;;4.70;3.60;;;12.90;91.00;;;;;;6183015;23;20028;-91
2023/05/01 05:23:12;;;;;;;5.70;3.65;;;12.90;91.00;;;;;;6183319;23;20008;-90
2023/05/01 05:25:37;;;;;;;5.13;3.30;;;12.90;91.00;;;;;;6183248;23;20066;-92
2023/05/01 05:28:03;;;;;;;10.63;3.78;;;12.90;91.00;;;;;;6183906;23;20001;-90
2023/05/01 05:30:29;;;;;;;5.47;3.90;;;12.90;91.00;;;;;;6183122;23;20008;-91
2023/05/01 05:32:55;;;;;;;6.22;3.70;;;12.90;91.00;;;;;;6183445;23;20482;-91
2023/05/01 05:35:21;;;;;;;6.47;3.47;;;12.90;91.00;;;;;;6183312;23;20001;-92
2023/05/01 05:37:46;;;;;;;5.25;3.53;;;12.90;91.00;;;;;;6183484;23;20390;-90
2023/05/01 05:40:12;;;;;;;6.28;3.85;;;13.50;91.20;;;;;;6183066;23;20040;-91
2023/05/01 05:42:38;;;;;;;6.60;3.58;;;12.90;91.00;;;;;;6182422;23;20088;-90
2023/05/01 05:45:05;;;;;;;6.00;3.95;;;12.90;91.10;;;;;;6183618;23;20033;-91
2023/05/01 05:47:30;;;;;;;7.00;4.05;;;12.90;91.00;;;;;;6159606;23;20506;-91
2023/05/01 05:49:56;;;;;;;7.03;3.78;;;12.90;91.10;;;;;;6183325;23;20009;-91
2023/05/01 05:52:22;;;;;;;4.90;3.90;;;12.90;91.10;;;;;;6183147;23;20011;-92
2023/05/01 05:54:48;;;;;;;6.82;3.90;;;12.90;91.10;;;;;;6183072;23;20005;-91
2023/05/01 05:57:13;;;;;;;5.97;3.80;;;12.90;91.10;;;;;;6183245;23;20009;-90
2023/05/01 05:59:39;;;;;;;5.45;3.42;;;13.30;91.20;;;;;;6183183;23;20009;-90
2023/05/01 06:02:04;;;;;;;5.47;3.53;;;12.90;91.10;;;;;;6183042;23;20346;-91
2023/05/01 06:04:30;;;;;;;6.25;3.97;;;12.90;91.10;;;;;;6183415;23;20339;-91
2023/05/01 06:06:56;;;;;;;5.45;4.07;;;12.90;91.10;;;;;;6183010;23;20088;-90
2023/05/01 06:09:22;;;;;;;5.90;4.15;;;13.00;91.10;;;;;;6183389;23;20008;-92
2023/05/01 06:11:48;;;;;;;7.43;3.55;;;12.60;91.00;;;;;;6182246;23;20013;-91
2023/05/01 06:14:15;;;;;;;5.22;3.78;;;12.90;91.10;;;;;;6183166;23;20309;-90
2023/05/01 06:16:41;;;;;;;7.22;3.80;;;12.90;91.10;;;;;;6183307;23;20610;-91
2023/05/01 06:19:09;;;;;;;8.65;4.53;;;12.90;91.10;;;;;;6158612;23;20005;-90
2023/05/01 06:21:35;;;;;;;8.90;4.15;;;12.90;91.10;;;;;;6157768;23;20013;-92
2023/05/01 06:24:00;;;;;;;5.57;3.53;;;12.90;91.10;;;;;;6158359;23;20006;-91
2023/05/01 06:26:27;;;;;;;4.88;3.60;;;12.90;91.10;;;;;;6183066;23;20053;-90
2023/05/01 06:28:53;;;;;;;7.85;4.45;;;12.90;91.20;;;;;;6183970;23;20019;-91
2023/05/01 06:31:19;;;;;;;5.80;3.50;;;12.90;91.10;;;;;;6184700;23;20051;-91
2023/05/01 06:33:45;;;;;;;5.55;3.95;;;12.90;91.20;;;;;;6157087;23;20005;-91
2023/05/01 06:36:11;;;;;;;7.72;3.78;;;12.90;91.20;;;;;;6183123;23;20060;-90
2023/05/01 06:38:36;;;;;;;7.05;3.95;;;12.90;91.20;;;;;;6183426;23;20013;-90
2023/05/01 06:41:04;;;;;;;5.20;3.38;;;12.90;91.20;;;;;;6182366;23;20012;-89
2023/05/01 06:43:30;;;;;;;5.32;3.80;;;12.90;91.20;;;;;;6182997;23;20441;-91
2023/05/01 06:45:56;;;;;;;4.90;3.63;;;12.90;91.20;;;;;;6182629;23;20001;-91
2023/05/01 06:48:22;;;;;;;5.75;4.05;;;12.90;91.20;;;;;;6158929;23;20059;-90
2023/05/01 06:50:48;;;;;;;6.20;4.20;;;12.90;91.20;;;;;;6159814;23;20012;-91
2023/05/01 06:53:16;;;;;;;6.30;4.05;;;12.90;91.20;;;;;;6160455;23;20362;-89
2023/05/01 06:55:41;;;;;;;11.50;4.00;;;12.90;91.20;;;;;;6184450;23;20083;-90
2023/05/01 06:58:07;;;;;;;6.65;4.53;;;12.90;91.20;;;;;;6184642;23;20032;-90
2023/05/01 07:00:33;;;;;;;5.82;3.55;;;12.90;91.20;;;;;;6184733;23;20106;-90
2023/05/01 07:02:59;;;;;;;9.27;4.30;;;12.90;91.20;;;;;;6184495;23;20028;-90
2023/05/01 07:05:25;;;;;;;7.05;4.18;;;13.00;91.20;;;;;;6186249;23;20068;-90
2023/05/01 07:07:51;;;;;;;6.05;4.32;;;13.00;91.20;;;;;;6184691;23;20001;-90
2023/05/01 07:10:17;;;;;;;5.80;3.95;;;13.00;91.20;;;;;;6184718;23;20080;-90
2023/05/01 07:12:42;;;;;;;6.32;4.05;;;13.00;91.20;;;;;;6184178;23;20012;-90
2023/05/01 07:15:08;;;;;;;4.78;3.75;;;13.30;91.30;;;;;;6184717;23;20005;-91
2023/05/01 07:17:35;;;;;;;8.93;4.78;;;13.00;91.20;;;;;;6160239;23;20001;-90
2023/05/01 07:20:00;;;;;;;6.78;4.10;;;13.00;91.20;;;;;;6185154;23;20623;-90
2023/05/01 07:22:27;;;;;;;9.30;4.13;;;13.00;91.20;;;;;;6184333;23;20001;-91
2023/05/01 07:24:53;;;;;;;9.98;4.10;;;13.00;91.20;;;;;;6184861;23;20481;-91
2023/05/01 07:27:19;;;;;;;7.40;4.60;;;13.00;91.20;;;;;;6185108;23;20001;-91
2023/05/01 07:29:45;;;;;;;6.57;4.05;;;13.00;91.20;;;;;;6184534;23;20013;-91
2023/05/01 07:32:10;;;;;;;7.38;3.72;;;13.00;91.20;;;;;;6185029;23;20001;-91
2023/05/01 07:34:36;;;;;;;6.18;3.78;;;13.10;91.20;;;;;;6184974;23;20008;-90
2023/05/01 07:37:03;;;;;;;6.90;4.03;;;13.00;91.20;;;;;;6184446;23;20382;-91
2023/05/01 07:39:30;;;;;;;6.65;4.40;;;13.00;91.10;;;;;;6183916;23;20442;-91
2023/05/01 07:41:58;;;;;;;7.28;3.92;;;13.10;91.20;;;;;;6159476;23;20001;-90
2023/05/01 07:44:24;;;;;;;6.55;4.20;;;13.10;91.20;;;;;;6185282;23;20513;-91
2023/05/01 07:46:50;;;;;;;9.25;3.88;;;13.00;91.10;;;;;;6185447;23;20004;-91
2023/05/01 07:49:15;;;;;;;7.00;4.43;;;13.10;91.20;;;;;;6186394;23;20012;-91
2023/05/01 07:51:41;;;;;;;12.30;4.30;;;13.20;91.20;;;;;;6186245;23;20005;-90
2023/05/01 07:54:07;;;;;;;10.07;4.03;;;13.10;91.20;;;;;;6186389;23;20009;-91
2023/05/01 07:56:33;;;;;;;4.95;3.67;;;14.10;91.40;;;;;;6185795;23;20005;-92
2023/05/01 07:58:58;;;;;;;8.57;4.55;;;13.10;91.10;;;;;;6185314;23;20019;-91
2023/05/01 08:01:24;;;;;;;9.10;4.45;;;13.00;91.10;;;;;;6185022;23;20005;-91
2023/05/01 08:03:50;;;;;;;5.60;3.90;;;13.10;91.10;;;;;;6185273;23;20008;-91
2023/05/01 08:06:16;;;;;;;6.20;4.18;;;13.10;91.10;;;;;;6184727;23;19997;-91
2023/05/01 08:08:41;;;;;;;5.95;3.70;;;13.10;91.10;;;;;;6185429;23;20031;-91
2023/05/01 08:11:08;;;;;;;7.18;4.80;;;13.10;91.10;;;;;;6184728;23;20068;-92
2023/05/01 08:13:34;;;;;;;5.82;4.18;;;13.10;91.10;;;;;;6159241;23;20032;-91
2023/05/01 08:16:03;;;;;;;5.85;4.05;;;13.10;91.10;;;;;;6184348;23;20016;-92
2023/05/01 08:18:29;;;;;;;9.52;4.07;;;13.10;91.10;;;;;;6184082;23;20005;-91
2023/05/01 08:20:55;;;;;;;7.70;4.03;;;13.10;91.10;;;;;;6183424;23;20006;-91
2023/05/01 08:23:21;;;;;;;6.82;4.70;;;13.20;91.10;;;;;;6185005;23;20011;-91
2023/05/01 08:25:49;;;;;;;6.32;4.80;;;13.10;91.10;;;;;;6183911;23;20008;-91
2023/05/01 08:28:16;;;;;;;7.53;4.82;;;13.20;91.10;;;;;;6183807;23;20491;-91
2023/05/01 08:30:42;;;;;;;7.78;4.45;;;13.20;91.10;;;;;;6158895;23;20465;-91
2023/05/01 08:33:08;;;;;;;8.57;4.05;;;13.20;91.10;;;;;;6183962;23;20067;-92
2023/05/01 08:35:34;;;;;;;7.10;4.57;;;12.90;91.00;;;;;;6183738;23;20009;-92
2023/05/01 08:38:00;;;;;;;14.10;4.72;;;13.20;91.10;;;;;;6183655;23;20005;-91
2023/05/01 08:40:26;;;;;;;10.20;4.80;;;13.20;91.10;;;;;;6183987;23;20005;-91
2023/05/01 08:42:54;;;;;;;8.05;4.25;;;13.20;91.10;;;;;;6158802;23;20029;-91
2023/05/01 08:45:22;;;;;;;6.55;4.05;;;13.20;91.00;;;;;;6183233;23;20063;-91
2023/05/01 08:47:49;;;;;;;9.18;4.45;;;13.20;91.00;;;;;;6158127;23;20665;-91
2023/05/01 08:50:16;;;;;;;8.35;5.15;;;13.20;91.00;;;;;;6158526;23;20001;-91
2023/05/01 08:52:43;;;;;;;7.32;4.35;;;13.20;91.00;;;;;;6159354;23;20044;-92
2023/05/01 08:55:12;;;;;;;7.53;4.78;;;13.20;91.00;;;;;;6158628;23;20009;-91
2023/05/01 08:57:38;;;;;;;6.32;4.45;;;13.20;91.00;;;;;;6159020;23;20442;-91
2023/05/01 09:00:06;;;;;;;7.95;4.93;;;13.30;91.10;;;;;;6158551;23;20005;-92
2023/05/01 09:02:34;;;;;;;7.25;5.30;;;13.20;91.00;;;;;;6158733;23;20088;-91
2023/05/01 09:05:02;;;;;;;7.70;5.32;;;13.70;91.20;;;;;;6158478;23;20035;-94
2023/05/01 09:07:29;;;;;;;6.63;4.28;;;13.30;91.00;;;;;;6134710;23;20013;-93
2023/05/01 09:09:56;;;;;;;8.55;4.43;;;13.30;91.10;;;;;;6158371;23;20064;-94
2023/05/01 09:12:34;;;;;;;8.60;4.03;;;13.30;91.10;;;;;;6158572;23;20527;-94
2023/05/01 09:15:01;;;;;;;8.05;4.70;;;13.30;91.10;;;;;;6183130;23;20025;-94
2023/05/01 09:17:29;;;;;;;7.10;4.38;;;13.30;91.00;;;;;;6158788;23;20032;-93
2023/05/01 09:19:56;;;;;;;9.48;5.28;;;13.30;91.00;;;;;;6158104;23;20009;-93
2023/05/01 09:22:24;;;;;;;11.35;4.90;;;13.30;91.00;;;;;;6158276;23;20039;-94
2023/05/01 09:24:50;;;;;;;7.13;5.15;;;13.30;91.40;;;;;;6159107;23;20005;-94
2023/05/01 09:27:15;;;;;;;8.55;4.38;;;13.30;91.00;;;;;;6183918;23;20084;-94
2023/05/01 09:29:46;;;;;;;8.20;4.88;;;13.40;91.00;;;;;;6183659;23;20001;-93
2023/05/01 09:32:21;;;;;;;8.55;4.90;;;13.30;91.00;;;;;;6134063;23;20009;-93
2023/05/01 09:34:52;;;;;;;9.40;6.00;;;13.40;91.00;;;;;;6159132;23;20104;-95
2023/05/01 09:37:26;;;;;;;5.55;4.43;;;13.40;91.00;;;;;;6158006;23;20013;-94
2023/05/01 09:40:04;;;;;;;8.52;3.90;;;13.40;91.00;;;;;;6159007;23;20001;-94
2023/05/01 09:42:36;;;;;;;6.30;4.20;;;13.40;91.00;;;;;;6159204;23;20001;-93
2023/05/01 09:45:04;;;;;;;8.52;5.43;;;13.40;91.00;;;;;;6158982;23;20005;-94
2023/05/01 09:47:30;;;;;;;9.05;4.18;;;13.40;91.00;;;;;;6135150;23;20080;-93
2023/05/01 09:49:58;;;;;;;7.75;3.80;;;13.40;91.00;;;;;;6183356;23;20024;-93
2023/05/01 09:52:29;;;;;;;9.63;4.75;;;13.40;90.90;;;;;;6134505;23;20028;-94
2023/05/01 09:55:15;;;;;;;11.55;6.03;;;13.40;90.90;;;;;;6158906;23;20009;-94
2023/05/01 09:57:42;;;;;;;14.77;7.47;;;13.50;90.90;;;;;;6158883;23;20009;-94
2023/05/01 10:00:14;;;;;;;12.43;5.47;;;13.50;90.90;;;;;;6158220;23;20013;-94
2023/05/01 10:02:43;;;;;;;12.30;5.80;;;13.40;90.90;;;;;;6134190;23;20033;-95
2023/05/01 10:05:09;;;;;;;5.50;4.40;;;13.50;90.90;;;;;;6158743;23;20079;-94
2023/05/01 10:07:36;;;;;;;11.05;5.05;;;13.50;90.90;;;;;;6158375;23;20028;-94
2023/05/01 10:10:18;;;;;;;11.38;6.57;;;13.50;90.90;;;;;;6158386;23;20009;-94
2023/05/01 10:12:44;;;;;;;11.00;6.25;;;13.50;90.90;;;;;;6158311;23;20112;-95
2023/05/01 10:15:10;;;;;;;8.82;5.63;;;13.50;90.90;;;;;;6134205;23;20032;-94
2023/05/01 10:17:38;;;;;;;10.45;5.80;;;13.50;90.90;;;;;;6182959;23;20512;-95
2023/05/01 10:20:07;;;;;;;8.13;5.22;;;13.50;90.90;;;;;;6157851;23;20005;-93
2023/05/01 10:22:33;;;;;;;10.00;5.28;;;13.50;90.80;;;;;;6158458;23;20051;-93
2023/05/01 10:24:59;;;;;;;11.50;4.93;;;13.50;90.80;;;;;;6160593;23;20064;-94
2023/05/01 10:27:26;;;;;;;6.30;4.15;;;13.60;90.90;;;;;;6185231;23;20039;-92
2023/05/01 10:29:53;;;;;;;9.13;5.32;;;13.60;90.80;;;;;;6160734;23;20018;-94
2023/05/01 10:32:20;;;;;;;6.20;4.25;;;13.80;90.90;;;;;;6160258;23;20009;-94
2023/05/01 10:34:57;;;;;;;10.32;5.00;;;13.60;90.80;;;;;;6160411;23;20055;-95
2023/05/01 10:37:47;;;;;;;9.10;5.40;;;13.70;90.80;;;;;;6159792;23;20005;-94
2023/05/01 10:40:48;;;;;;;6.97;4.93;;;13.70;90.80;;;;;;6159941;23;20009;-93
2023/05/01 10:43:29;;;;;;;6.68;4.15;;;13.70;90.70;;;;;;6038006;23;20563;-93
2023/05/01 10:46:20;;;;;;;9.35;5.15;;;13.70;90.70;;;;;;6014282;23;20047;-94
2023/05/01 10:48:46;;;;;;;9.15;4.68;;;13.70;90.70;;;;;;6013985;23;20522;-94
2023/05/01 10:51:21;;;;;;;11.30;7.20;;;13.70;90.70;;;;;;6036724;23;20012;-94
2023/05/01 10:53:49;;;;;;;10.00;6.05;;;13.70;90.80;;;;;;6037981;23;20011;-94
2023/05/01 10:56:22;;;;;;;13.65;5.07;;;13.70;90.80;;;;;;6037957;23;20007;-94
2023/05/01 10:59:05;;;;;;;7.55;4.43;;;13.70;90.80;;;;;;6037785;23;20015;-95
2023/05/01 11:01:33;;;;;;;10.85;6.30;;;13.80;90.80;;;;;;6037509;23;20012;-95
2023/05/01 11:04:18;;;;;;;7.90;5.25;;;13.80;90.80;;;;;;6037696;23;20003;-95
2023/05/01 11:07:14;;;;;;;9.50;4.82;;;13.70;90.80;;;;;;6012502;23;20083;-93
2023/05/01 11:09:40;;;;;;;9.38;5.13;;;13.90;90.90;;;;;;5925684;24;20095;-93
2023/05/01 11:12:08;;;;;;;11.75;5.60;;;13.80;90.90;;;;;;5924960;24;20104;-92
2023/05/01 11:14:52;;;;;;;9.27;5.85;;;13.80;90.90;;;;;;5902883;24;20014;-93
2023/05/01 11:17:41;;;;;;;8.15;6.00;;;13.80;90.90;;;;;;5925856;24;20097;-94
2023/05/01 11:20:11;;;;;;;11.77;6.93;;;13.90;90.90;;;;;;6012537;23;20007;-92
2023/05/01 11:22:41;;;;;;;6.97;5.20;;;13.90;91.00;;;;;;6037138;23;20003;-92
2023/05/01 11:25:22;;;;;;;9.88;5.88;;;13.90;91.00;;;;;;6037459;23;20007;-94
2023/05/01 11:28:02;;;;;;;7.82;5.07;;;13.90;91.00;;;;;;6037789;23;20007;-93
2023/05/01 11:30:37;;;;;;;12.68;7.47;;;13.90;91.00;;;;;;6036958;23;20003;-94
2023/05/01 11:33:04;;;;;;;10.35;6.00;;;13.90;91.00;;;;;;6037029;23;20488;-94
2023/05/01 11:35:30;;;;;;;11.85;6.75;;;14.00;91.00;;;;;;6036897;23;20084;-93
2023/05/01 11:37:56;;;;;;;11.05;5.97;;;14.00;91.00;;;;;;6037898;23;20007;-93
2023/05/01 11:40:30;;;;;;;11.52;6.75;;;14.00;91.00;;;;;;6037053;23;20011;-94
2023/05/01 11:43:03;;;;;;;3.13;2.30;;;14.00;91.00;;;;;;6037076;23;20007;-90
2023/05/01 11:45:30;;;;;;;11.73;5.32;;;14.00;91.10;;;;;;6073254;23;20453;-93
2023/05/01 11:47:56;;;;;;;8.15;5.65;;;14.20;91.10;;;;;;6159833;23;20005;-92
2023/05/01 11:50:42;;;;;;;11.70;6.30;;;14.20;91.10;;;;;;6159188;23;20044;-93
2023/05/01 11:53:16;;;;;;;8.80;5.10;;;14.00;91.10;;;;;;6158536;23;20008;-91
2023/05/01 11:55:42;;;;;;;10.75;6.25;;;14.00;91.10;;;;;;6159629;23;20088;-91
2023/05/01 11:58:08;;;;;;;10.82;6.28;;;14.00;91.10;;;;;;6184293;23;20026;-92
2023/05/01 12:00:38;;;;;;;9.65;5.60;;;14.10;91.20;;;;;;6184284;23;20013;-92
2023/05/01 12:03:12;;;;;;;7.10;4.45;;;14.10;91.20;;;;;;6184116;23;20005;-91
2023/05/01 12:05:41;;;;;;;7.43;4.55;;;14.10;91.10;;;;;;6159988;23;20016;-91
2023/05/01 12:08:18;;;;;;;3.83;2.90;;;14.10;91.00;;;;;;6159730;23;20011;-90
2023/05/01 12:10:49;;;;;;;9.27;5.78;;;14.10;91.00;;;;;;6158287;23;20012;-93
2023/05/01 12:13:15;;;;;;;6.88;4.47;;;14.10;91.00;;;;;;6135437;23;20009;-92
2023/05/01 12:15:45;;;;;;;6.63;3.65;;;14.10;91.10;;;;;;6135967;23;20071;-91
2023/05/01 12:18:16;;;;;;;3.80;2.88;;;14.20;91.20;;;;;;6160079;23;20008;-91
2023/05/01 12:20:42;;;;;;;;;;;14.20;91.10;;;;;;6159525;23;20005;-93
2023/05/01 12:23:12;;;;;;;8.63;5.75;;;14.20;91.10;;;;;;6158837;23;19944;-91
2023/05/01 12:25:38;;;;;;;;;;;14.20;91.10;;;;;;6160192;23;20001;-92
2023/05/01 12:28:10;;;;;;;6.95;3.97;;;14.10;91.10;;;;;;6159694;23;19923;-93
2023/05/01 12:30:36;;;;;;;8.02;4.72;;;14.10;91.10;;;;;;6186086;23;20073;-91
2023/05/01 12:33:16;;;;;;;17.38;8.43;;;14.10;91.20;;;;;;6158766;23;20005;-92
2023/05/01 12:35:45;;;;;;;9.98;6.13;;;14.10;91.20;;;;;;6159571;23;20011;-93
2023/05/01 12:38:28;;;;;;;8.10;5.53;;;14.10;91.20;;;;;;6135245;23;20088;-92
2023/05/01 12:40:56;;;;;;;4.78;2.67;;;14.10;91.10;;;;;;6158563;23;20001;-94
2023/05/01 12:43:33;;;;;;;10.63;4.82;;;14.10;91.20;;;;;;6158927;23;20025;-94
2023/05/01 12:45:59;;;;;;;4.30;2.75;;;14.20;91.10;;;;;;6159072;23;20071;-93
2023/05/01 12:48:25;;;;;;;7.95;5.00;;;14.20;91.10;;;;;;6160525;23;20009;-94
2023/05/01 12:50:53;;;;;;;6.82;4.88;;;14.30;91.20;;;;;;6159088;23;20032;-92
2023/05/01 12:53:24;;;;;;;5.85;4.57;;;14.10;91.20;;;;;;6159027;23;20579;-91